This is the latest recevied weather packets stored in our database for station/object OM2RC-6. If no packets are shown the sender has not sent any weather packets the latest 10 day(s).
| Time | Temp. | Humidity | Pressure | Rain* | Wind** | Luminosity | Snow |
|---|---|---|---|---|---|---|---|
| 1778146173 | 16.67° C | 85% | 1014.8 hPa | - | - | - | - |
| 1778145870 | 17.22° C | 86% | 1014.8 hPa | - | - | - | - |
| 1778145267 | 16.67° C | 89% | 1014.5 hPa | - | - | - | - |
| 1778144967 | 17.22° C | 87% | 1014.6 hPa | - | - | - | - |
| 1778144665 | 16.67° C | 86% | 1014.5 hPa | - | - | - | - |
| 1778144364 | 17.22° C | 87% | 1014.5 hPa | - | - | - | - |
| 1778144062 | 16.67° C | 84% | 1014.4 hPa | - | - | - | - |
| 1778143761 | 17.78° C | 82% | 1014.2 hPa | - | - | - | - |
| 1778143460 | 18.89° C | 77% | 1014 hPa | - | - | - | - |
| 1778143158 | 18.33° C | 80% | 1014 hPa | - | - | - | - |
| 1778142856 | 18.33° C | 81% | 1013.9 hPa | - | - | - | - |
| 1778142555 | 18.33° C | 82% | 1013.8 hPa | - | - | - | - |
| 1778142254 | 17.78° C | 84% | 1013.7 hPa | - | - | - | - |
| 1778141952 | 17.78° C | 85% | 1013.8 hPa | - | - | - | - |
| 1778141049 | 18.33° C | 87% | 1013.6 hPa | - | - | - | - |
| 1778140745 | 18.89° C | 84% | 1013.6 hPa | - | - | - | - |
| 1778140443 | 18.89° C | 85% | 1013.6 hPa | - | - | - | - |
| 1778140142 | 18.33° C | 87% | 1013.6 hPa | - | - | - | - |
| 1778139842 | 17.78° C | 89% | 1013.8 hPa | - | - | - | - |
| 1778139540 | 17.78° C | 92% | 1013.7 hPa | - | - | - | - |
| 1778139238 | 17.22° C | 97% | 1013.6 hPa | - | - | - | - |
| 1778138938 | 16.11° C | 98% | 1013.6 hPa | - | - | - | - |
| 1778138636 | 15.56° C | 100% | 1013.7 hPa | - | - | - | - |
| 1778138335 | 15.56° C | 100% | 1013.7 hPa | - | - | - | - |
| 1778138034 | 15.56° C | 100% | 1013.8 hPa | - | - | - | - |
* Rain since midnight (hover to see other rain measurements)
** Current wind speed in m/s (hover to see current wind gust speed)